Time;durP1;ratioP1;P1;durP2;ratioP2;P2;SDS_P1;SDS_P2;PMS_P1;PMS_P2;Temp;Humidity;BMP_temperature;BMP_pressure;BME280_temperature;BME280_humidity;BME280_pressure;Samples;Min_cycle;Max_cycle;Signal;HPM_P1;HPM_P2
2021/05/13 00:01:23;;;;;;;40.25;37.95;;;18.20;99.90;;;;;;5013926;28;20026;-61
2021/05/13 00:03:52;;;;;;;38.75;36.72;;;18.20;99.90;;;;;;5013943;28;20026;-60
2021/05/13 00:06:19;;;;;;;39.30;37.00;;;18.20;99.90;;;;;;5013597;28;20483;-63
2021/05/13 00:08:56;;;;;;;39.58;37.47;;;18.30;99.90;;;;;;5013825;28;20014;-64
2021/05/13 00:11:29;;;;;;;38.47;36.28;;;18.40;99.90;;;;;;5013690;28;20026;-64
2021/05/13 00:13:57;;;;;;;37.67;35.65;;;18.40;99.90;;;;;;5013740;28;20030;-62
2021/05/13 00:16:31;;;;;;;37.50;35.70;;;18.40;99.90;;;;;;5013669;28;20509;-61
2021/05/13 00:19:00;;;;;;;37.17;35.13;;;18.50;99.90;;;;;;5013592;28;20037;-60
2021/05/13 00:21:28;;;;;;;36.22;34.25;;;18.50;99.90;;;;;;5013347;28;20120;-57
2021/05/13 00:23:55;;;;;;;36.92;34.95;;;18.70;99.90;;;;;;5013316;28;20363;-57
2021/05/13 00:26:38;;;;;;;37.28;34.80;;;18.80;99.90;;;;;;5012949;28;20030;-58
2021/05/13 00:29:07;;;;;;;34.83;32.72;;;18.80;99.90;;;;;;5013461;28;20029;-59
2021/05/13 00:31:35;;;;;;;33.80;32.00;;;18.80;99.90;;;;;;5013291;28;20029;-59
2021/05/13 00:34:03;;;;;;;32.45;30.55;;;18.80;99.90;;;;;;5013316;28;20018;-58
2021/05/13 00:36:34;;;;;;;30.30;28.75;;;19.00;99.90;;;;;;5013359;28;20029;-58
2021/05/13 00:39:02;;;;;;;30.23;28.52;;;19.10;99.90;;;;;;5013398;28;20017;-59
2021/05/13 00:41:29;;;;;;;29.95;28.23;;;19.10;99.90;;;;;;5013253;28;20034;-59
2021/05/13 00:43:56;;;;;;;29.95;28.25;;;19.20;99.90;;;;;;5013196;28;20076;-58
2021/05/13 00:46:25;;;;;;;29.75;28.15;;;19.30;99.90;;;;;;5012968;28;20061;-57
2021/05/13 00:49:01;;;;;;;29.20;27.70;;;19.40;99.90;;;;;;5013097;28;20022;-58
2021/05/13 00:51:28;;;;;;;29.05;27.45;;;19.40;99.90;;;;;;5012956;28;20022;-58
2021/05/13 00:53:56;;;;;;;27.52;26.02;;;19.40;99.90;;;;;;5013038;28;20463;-58
2021/05/13 00:56:26;;;;;;;26.20;24.90;;;19.50;99.90;;;;;;5013031;28;20030;-58
2021/05/13 00:58:58;;;;;;;26.55;24.92;;;19.50;99.90;;;;;;5013108;28;20034;-58
2021/05/13 01:01:36;;;;;;;25.85;24.40;;;19.50;99.90;;;;;;5011851;28;20030;-58
2021/05/13 01:04:04;;;;;;;26.05;24.50;;;19.50;99.90;;;;;;5013051;28;20026;-58
2021/05/13 01:06:32;;;;;;;26.80;25.10;;;19.70;99.90;;;;;;5012931;28;20482;-58
2021/05/13 01:08:59;;;;;;;24.40;23.15;;;19.80;99.90;;;;;;5013028;28;20018;-58
2021/05/13 01:11:26;;;;;;;24.67;23.15;;;19.80;99.90;;;;;;5013031;28;20072;-58
2021/05/13 01:14:11;;;;;;;24.40;23.00;;;19.80;99.90;;;;;;5013018;28;20049;-58
2021/05/13 01:16:50;;;;;;;23.92;22.52;;;19.90;99.90;;;;;;5012972;28;20037;-57
2021/05/13 01:19:17;;;;;;;22.73;21.33;;;19.80;99.90;;;;;;5012797;28;20032;-57
2021/05/13 01:21:45;;;;;;;21.80;20.40;;;19.90;99.90;;;;;;5013001;28;20397;-58
2021/05/13 01:24:13;;;;;;;20.63;19.48;;;20.00;99.90;;;;;;5012869;28;20029;-57
2021/05/13 01:26:45;;;;;;;21.13;19.92;;;20.00;99.90;;;;;;5012851;28;20037;-57
2021/05/13 01:29:16;;;;;;;20.73;19.33;;;20.10;99.90;;;;;;5012785;28;20034;-57
2021/05/13 01:31:43;;;;;;;19.30;18.10;;;20.40;99.90;;;;;;5012942;28;20026;-56
2021/05/13 01:34:11;;;;;;;18.45;17.55;;;20.40;99.90;;;;;;5012850;28;20100;-57
2021/05/13 01:36:39;;;;;;;17.55;16.65;;;20.40;99.90;;;;;;5012702;28;20022;-57
2021/05/13 01:39:10;;;;;;;17.65;16.58;;;20.40;99.90;;;;;;5013815;28;20022;-57
2021/05/13 01:41:39;;;;;;;18.80;17.70;;;20.60;99.90;;;;;;5016264;28;20030;-60
2021/05/13 01:44:06;;;;;;;18.77;17.63;;;20.80;99.90;;;;;;5016266;28;20030;-57
2021/05/13 01:46:34;;;;;;;16.38;15.48;;;21.10;99.90;;;;;;5016135;28;20022;-58
2021/05/13 01:49:02;;;;;;;15.90;15.10;;;20.90;99.90;;;;;;5015010;28;20282;-57
2021/05/13 01:51:29;;;;;;;14.15;13.45;;;21.00;99.90;;;;;;5016206;28;20052;-57
2021/05/13 01:53:56;;;;;;;14.10;13.40;;;21.00;99.90;;;;;;5016165;28;20022;-59
2021/05/13 01:56:24;;;;;;;13.57;12.88;;;21.20;99.90;;;;;;5016170;28;20022;-57
2021/05/13 01:58:52;;;;;;;13.70;12.82;;;21.30;99.90;;;;;;5016292;28;20124;-57
2021/05/13 02:01:19;;;;;;;12.35;11.68;;;21.50;99.90;;;;;;5015939;28;20474;-57
2021/05/13 02:03:47;;;;;;;11.60;11.00;;;21.50;99.90;;;;;;5016052;28;20390;-57
2021/05/13 02:06:14;;;;;;;11.00;10.43;;;21.60;99.90;;;;;;5015890;28;20080;-56
2021/05/13 02:08:41;;;;;;;9.82;9.25;;;21.40;99.90;;;;;;5015891;28;20068;-57
2021/05/13 02:11:09;;;;;;;9.30;8.80;;;21.40;99.90;;;;;;5015975;28;20028;-57
2021/05/13 02:13:36;;;;;;;8.85;8.27;;;21.50;99.90;;;;;;5015926;28;20030;-58
2021/05/13 02:16:04;;;;;;;8.43;8.00;;;21.20;99.90;;;;;;5015520;28;20033;-59
2021/05/13 02:18:31;;;;;;;8.73;7.90;;;21.10;99.90;;;;;;5015744;28;20022;-58
2021/05/13 02:20:59;;;;;;;8.27;7.65;;;21.20;99.90;;;;;;5015441;28;20478;-58
2021/05/13 02:23:26;;;;;;;8.45;7.72;;;21.40;99.90;;;;;;5015552;28;20033;-58
2021/05/13 02:25:54;;;;;;;7.28;6.85;;;21.50;99.90;;;;;;5015398;28;20041;-58
2021/05/13 02:28:21;;;;;;;7.40;6.90;;;21.40;99.90;;;;;;5015621;28;20030;-58
2021/05/13 02:30:48;;;;;;;6.95;6.55;;;21.60;99.90;;;;;;5015433;28;20441;-58
2021/05/13 02:33:16;;;;;;;6.68;6.15;;;21.80;99.90;;;;;;5015384;28;20022;-59
2021/05/13 02:35:43;;;;;;;7.25;5.82;;;22.10;99.90;;;;;;5015345;28;20482;-58
2021/05/13 02:38:10;;;;;;;5.90;5.50;;;21.90;99.90;;;;;;5015444;28;20028;-58
2021/05/13 02:40:38;;;;;;;5.75;5.20;;;22.00;99.90;;;;;;5015419;28;20391;-58
2021/05/13 02:43:05;;;;;;;5.18;4.80;;;22.10;99.90;;;;;;5015187;28;20021;-58
2021/05/13 02:45:36;;;;;;;5.90;5.50;;;22.00;99.90;;;;;;5015378;28;20025;-58
2021/05/13 02:48:03;;;;;;;5.85;5.35;;;22.20;99.90;;;;;;5015166;28;20040;-58
2021/05/13 02:50:31;;;;;;;4.95;4.63;;;22.30;99.90;;;;;;5014889;28;20525;-58
2021/05/13 02:52:58;;;;;;;5.82;5.35;;;22.30;99.90;;;;;;5014999;28;20014;-59
2021/05/13 02:55:25;;;;;;;7.20;6.03;;;22.50;99.90;;;;;;5014940;28;20030;-58
2021/05/13 02:57:53;;;;;;;5.15;4.72;;;22.50;99.90;;;;;;5015031;28;20030;-58
2021/05/13 03:03:17;;;;;;;5.45;4.95;;;22.10;99.90;;;;;;5001123;28;20030;-58
2021/05/13 03:05:45;;;;;;;5.57;5.18;;;22.10;99.90;;;;;;5014682;28;20030;-57
2021/05/13 03:08:14;;;;;;;5.82;5.32;;;22.20;99.90;;;;;;5013467;28;20033;-58
2021/05/13 03:13:11;;;;;;;4.72;4.32;;;22.10;99.90;;;;;;5014672;28;20026;-58
2021/05/13 03:15:38;;;;;;;5.17;4.77;;;22.30;99.60;;;;;;5014636;28;20064;-58
2021/05/13 03:18:06;;;;;;;4.97;4.20;;;22.40;99.90;;;;;;5014507;28;20375;-58
2021/05/13 03:20:41;;;;;;;4.30;4.00;;;22.40;99.90;;;;;;5014342;28;20045;-58
2021/05/13 03:23:12;;;;;;;3.80;3.50;;;22.30;99.90;;;;;;5014481;28;20037;-58
2021/05/13 03:25:41;;;;;;;4.28;3.83;;;22.20;99.90;;;;;;5014248;28;20030;-58
2021/05/13 03:28:09;;;;;;;4.55;4.18;;;22.30;99.90;;;;;;5014305;28;20034;-58
2021/05/13 03:30:41;;;;;;;4.20;3.90;;;22.50;99.90;;;;;;5014112;28;20053;-57
2021/05/13 03:33:08;;;;;;;4.20;3.80;;;22.70;99.90;;;;;;5012997;28;20026;-58
2021/05/13 03:35:37;;;;;;;4.22;3.95;;;22.70;99.70;;;;;;5014261;28;20018;-57
2021/05/13 03:38:05;;;;;;;5.97;4.38;;;22.80;99.90;;;;;;5014187;28;20026;-57
2021/05/13 03:40:34;;;;;;;4.93;4.53;;;22.90;99.90;;;;;;5014099;28;20494;-58
2021/05/13 03:43:03;;;;;;;4.50;4.20;;;22.90;99.90;;;;;;5014285;28;20072;-58
2021/05/13 03:45:31;;;;;;;5.85;4.50;;;22.90;99.90;;;;;;5014046;28;20034;-58
2021/05/13 03:48:04;;;;;;;5.05;4.55;;;22.90;99.00;;;;;;5013992;28;20029;-58
2021/05/13 03:50:37;;;;;;;5.78;4.18;;;22.90;99.70;;;;;;5014264;28;20049;-58
2021/05/13 03:53:06;;;;;;;4.60;4.20;;;22.90;98.80;;;;;;5013786;28;20026;-58
2021/05/13 03:55:35;;;;;;;4.93;4.53;;;22.90;99.40;;;;;;5013998;28;20473;-57
2021/05/13 03:58:05;;;;;;;5.30;4.30;;;22.90;99.50;;;;;;5013781;28;20079;-57
2021/05/13 04:01:08;;;;;;;;;;;23.00;99.60;;;;;;5014273;28;20072;-57
2021/05/13 04:03:36;;;;;;;4.53;4.13;;;22.80;99.40;;;;;;5013518;28;19905;-58
2021/05/13 04:06:04;;;;;;;4.65;4.25;;;22.60;99.30;;;;;;5013615;28;20032;-58
2021/05/13 04:08:31;;;;;;;4.40;4.00;;;22.60;98.70;;;;;;5013705;28;20028;-57
2021/05/13 04:10:59;;;;;;;4.75;4.22;;;22.60;99.20;;;;;;5013649;28;20113;-58
2021/05/13 04:13:26;;;;;;;4.35;3.97;;;22.60;99.00;;;;;;5013580;28;20441;-58
2021/05/13 04:15:54;;;;;;;4.10;3.70;;;22.80;98.20;;;;;;5013437;28;20022;-58
2021/05/13 04:18:22;;;;;;;4.50;4.20;;;22.60;99.20;;;;;;5013718;28;20076;-59
2021/05/13 04:20:49;;;;;;;4.95;4.30;;;22.60;99.10;;;;;;5012960;28;20548;-59
2021/05/13 04:23:17;;;;;;;6.28;4.50;;;22.70;99.20;;;;;;5013282;28;20107;-59
2021/05/13 04:25:44;;;;;;;5.68;4.30;;;22.70;99.30;;;;;;5013371;28;20068;-59
2021/05/13 04:28:11;;;;;;;6.78;4.40;;;22.60;99.00;;;;;;5013416;28;20022;-59
2021/05/13 04:30:39;;;;;;;5.85;4.90;;;22.70;98.30;;;;;;5013348;28;20037;-59
2021/05/13 04:33:06;;;;;;;6.65;4.55;;;22.70;99.00;;;;;;5013371;28;20022;-59
2021/05/13 04:35:33;;;;;;;4.78;4.40;;;22.70;98.60;;;;;;5013360;28;20029;-59
2021/05/13 04:38:01;;;;;;;4.00;3.72;;;22.70;98.80;;;;;;5013275;28;20030;-59
2021/05/13 04:40:28;;;;;;;8.68;3.92;;;22.70;99.00;;;;;;5013119;28;20398;-59
2021/05/13 04:42:55;;;;;;;4.47;4.07;;;22.50;99.00;;;;;;5013369;28;20029;-59
2021/05/13 04:45:23;;;;;;;4.65;4.40;;;22.30;99.70;;;;;;5012997;28;21997;-59
2021/05/13 04:50:29;;;;;;;4.70;4.30;;;22.60;99.90;;;;;;5013235;28;20394;-59
2021/05/13 04:52:57;;;;;;;4.57;4.28;;;22.50;99.20;;;;;;5013281;28;20022;-59
2021/05/13 04:55:25;;;;;;;4.63;4.30;;;22.50;98.50;;;;;;5011802;28;20033;-59
2021/05/13 04:57:52;;;;;;;5.00;4.60;;;22.30;99.30;;;;;;5013211;28;20065;-59
2021/05/13 05:00:20;;;;;;;4.50;4.10;;;22.40;99.20;;;;;;5013137;28;20026;-58
2021/05/13 05:02:47;;;;;;;4.47;4.18;;;22.30;99.60;;;;;;5013193;28;20550;-59
2021/05/13 05:05:15;;;;;;;5.13;4.70;;;22.30;98.90;;;;;;5012998;28;20026;-59
2021/05/13 05:07:42;;;;;;;5.07;4.78;;;22.20;99.50;;;;;;5013261;28;20024;-59
2021/05/13 05:10:10;;;;;;;4.60;4.20;;;22.00;99.90;;;;;;5012944;28;20029;-59
2021/05/13 05:12:37;;;;;;;4.80;4.40;;;21.80;99.90;;;;;;5013193;28;20475;-59
2021/05/13 05:15:05;;;;;;;4.30;4.00;;;21.70;99.80;;;;;;5015754;28;20029;-59
2021/05/13 05:17:36;;;;;;;5.00;4.63;;;21.60;99.70;;;;;;5016912;28;20064;-58
2021/05/13 05:20:03;;;;;;;;;;;21.70;99.70;;;;;;5016984;28;20080;-58
2021/05/13 05:22:30;;;;;;;3.85;3.47;;;21.70;99.50;;;;;;5016713;28;19905;-59
2021/05/13 05:24:58;;;;;;;4.30;4.00;;;21.80;99.80;;;;;;5016778;28;20450;-59
2021/05/13 05:27:25;;;;;;;4.55;4.15;;;21.80;99.90;;;;;;5016494;28;20018;-58
2021/05/13 05:29:52;;;;;;;4.10;3.80;;;21.80;99.60;;;;;;5016575;28;20029;-59
2021/05/13 05:32:20;;;;;;;4.82;3.67;;;21.80;99.10;;;;;;5016543;28;20041;-58
2021/05/13 05:34:47;;;;;;;4.40;3.88;;;21.80;99.40;;;;;;5016478;28;20129;-59
2021/05/13 05:37:14;;;;;;;4.00;3.70;;;21.80;99.70;;;;;;5016398;28;20030;-58
2021/05/13 05:39:42;;;;;;;5.65;3.80;;;21.80;99.90;;;;;;5016425;28;20121;-58
2021/05/13 05:42:09;;;;;;;4.20;3.90;;;21.80;99.90;;;;;;5016302;28;20022;-59
2021/05/13 05:44:36;;;;;;;4.30;4.07;;;21.80;99.90;;;;;;5016417;28;20109;-58
2021/05/13 05:47:04;;;;;;;4.10;3.80;;;21.80;99.90;;;;;;5016489;28;20494;-59
2021/05/13 05:49:31;;;;;;;4.88;4.50;;;21.70;99.60;;;;;;5016160;28;20025;-59
2021/05/13 05:51:59;;;;;;;5.47;5.07;;;21.70;99.90;;;;;;5016467;28;20026;-58
2021/05/13 05:54:26;;;;;;;5.05;4.65;;;21.60;99.90;;;;;;5016118;28;20026;-59
2021/05/13 05:56:53;;;;;;;4.97;4.68;;;21.60;99.90;;;;;;5016150;28;20117;-57
2021/05/13 05:59:21;;;;;;;5.13;4.65;;;21.50;99.90;;;;;;5015980;28;20033;-58
2021/05/13 06:01:48;;;;;;;5.53;5.03;;;21.50;99.90;;;;;;5015855;28;20041;-58
2021/05/13 06:04:15;;;;;;;5.95;5.25;;;21.50;99.90;;;;;;5014482;28;20026;-58
2021/05/13 06:06:42;;;;;;;4.50;4.30;;;21.50;99.90;;;;;;5015911;28;20030;-58
2021/05/13 06:09:10;;;;;;;5.38;4.45;;;21.40;99.90;;;;;;5015830;28;20018;-58
2021/05/13 06:11:37;;;;;;;4.13;3.92;;;21.40;99.90;;;;;;5015789;28;20029;-57
2021/05/13 06:14:05;;;;;;;4.82;4.10;;;21.40;99.90;;;;;;5015770;28;20426;-58
2021/05/13 06:16:32;;;;;;;4.60;4.32;;;21.30;99.90;;;;;;5015995;28;20026;-58
2021/05/13 06:19:00;;;;;;;4.70;4.40;;;21.20;99.90;;;;;;5015575;28;20113;-58
2021/05/13 06:21:28;;;;;;;4.82;4.50;;;21.10;99.90;;;;;;5015433;28;20077;-58
2021/05/13 06:23:57;;;;;;;5.45;5.05;;;21.00;99.90;;;;;;5015377;28;20033;-58
2021/05/13 06:26:35;;;;;;;4.70;4.50;;;20.90;99.90;;;;;;5014953;28;20037;-58
2021/05/13 06:29:05;;;;;;;5.03;4.63;;;20.90;99.90;;;;;;5014243;28;20026;-56
2021/05/13 06:31:36;;;;;;;5.32;4.93;;;20.90;99.90;;;;;;5015411;28;20100;-58
2021/05/13 06:34:04;;;;;;;4.75;4.55;;;20.80;99.90;;;;;;5015296;28;20034;-57
2021/05/13 06:36:32;;;;;;;5.00;4.60;;;20.70;99.90;;;;;;5015305;28;20076;-58
2021/05/13 06:38:59;;;;;;;4.93;4.53;;;20.50;99.90;;;;;;5015106;28;20076;-58
2021/05/13 06:41:26;;;;;;;4.78;4.57;;;20.40;99.90;;;;;;5015203;28;20084;-58
2021/05/13 06:43:54;;;;;;;5.32;5.03;;;20.30;99.90;;;;;;5014798;28;20026;-60
2021/05/13 06:46:22;;;;;;;5.18;4.80;;;20.30;99.90;;;;;;5013624;28;20433;-60
2021/05/13 06:48:50;;;;;;;5.55;5.15;;;20.10;99.90;;;;;;5014874;28;20089;-59
2021/05/13 06:51:18;;;;;;;5.63;5.32;;;19.90;99.90;;;;;;5014909;28;20394;-59
2021/05/13 06:53:46;;;;;;;6.97;6.25;;;19.80;99.90;;;;;;5014854;28;20494;-59
2021/05/13 06:56:14;;;;;;;6.32;6.03;;;19.70;99.90;;;;;;5014696;28;20555;-59
2021/05/13 06:58:42;;;;;;;6.45;6.15;;;19.60;99.90;;;;;;5014683;28;20094;-60
2021/05/13 07:01:10;;;;;;;7.22;6.72;;;19.40;99.90;;;;;;5014803;28;20505;-59
2021/05/13 07:03:37;;;;;;;7.43;7.13;;;19.20;99.90;;;;;;5014580;28;20022;-60
2021/05/13 07:06:05;;;;;;;7.90;7.40;;;19.00;99.90;;;;;;5014440;28;20033;-60
2021/05/13 07:08:32;;;;;;;9.00;8.15;;;18.90;99.90;;;;;;5014480;28;20368;-60
2021/05/13 07:11:01;;;;;;;9.05;8.30;;;18.90;99.90;;;;;;5013256;28;20030;-60
2021/05/13 07:13:28;;;;;;;9.38;8.80;;;18.90;99.90;;;;;;5014549;28;20058;-60
2021/05/13 07:15:56;;;;;;;10.52;9.63;;;18.90;99.90;;;;;;5014615;28;20032;-60
2021/05/13 07:18:23;;;;;;;11.00;10.20;;;18.90;99.90;;;;;;5014452;28;20056;-59
2021/05/13 07:20:51;;;;;;;11.82;10.95;;;18.90;99.90;;;;;;5012996;28;20050;-59
2021/05/13 07:23:18;;;;;;;13.35;12.48;;;18.90;99.90;;;;;;5014448;28;20053;-59
2021/05/13 07:25:47;;;;;;;13.82;12.93;;;18.90;99.90;;;;;;5014301;28;20025;-59
2021/05/13 07:28:15;;;;;;;14.13;13.13;;;18.90;99.90;;;;;;5014249;28;20033;-60
2021/05/13 07:30:43;;;;;;;14.80;13.75;;;18.90;99.90;;;;;;5013081;28;20494;-58
2021/05/13 07:33:10;;;;;;;14.38;13.35;;;18.90;99.90;;;;;;5014477;28;20541;-60
2021/05/13 07:35:37;;;;;;;15.93;14.75;;;18.90;99.90;;;;;;5014186;28;20095;-60
2021/05/13 07:38:05;;;;;;;14.90;13.93;;;19.00;99.90;;;;;;5013533;28;20470;-59
2021/05/13 07:40:33;;;;;;;15.10;14.10;;;19.00;99.90;;;;;;5014164;28;20438;-59
2021/05/13 07:43:01;;;;;;;14.90;14.00;;;19.00;99.90;;;;;;5014035;28;20101;-59
2021/05/13 07:45:28;;;;;;;16.63;15.52;;;18.90;99.90;;;;;;5013862;28;20080;-58
2021/05/13 07:47:58;;;;;;;17.48;16.27;;;18.90;99.90;;;;;;5013998;28;20029;-59
2021/05/13 07:50:26;;;;;;;17.33;15.98;;;18.80;99.90;;;;;;5013817;28;20034;-59
2021/05/13 07:52:53;;;;;;;16.92;15.80;;;18.70;99.90;;;;;;5014197;28;20026;-57
2021/05/13 07:55:21;;;;;;;16.65;15.65;;;18.70;99.90;;;;;;5013921;28;20018;-59
2021/05/13 07:57:48;;;;;;;17.15;15.93;;;18.70;99.90;;;;;;5013897;28;20026;-60
2021/05/13 08:00:16;;;;;;;17.75;16.33;;;18.70;99.90;;;;;;5013874;28;20394;-60
2021/05/13 08:02:44;;;;;;;17.75;16.60;;;18.60;99.90;;;;;;5014123;28;20109;-60
2021/05/13 08:05:12;;;;;;;18.13;16.83;;;18.50;99.90;;;;;;5012551;28;20080;-60
2021/05/13 08:07:40;;;;;;;17.77;16.80;;;18.40;99.90;;;;;;5013733;28;20026;-60
2021/05/13 08:10:08;;;;;;;18.52;17.38;;;18.30;99.90;;;;;;5013404;28;20037;-59
2021/05/13 08:12:36;;;;;;;19.65;18.42;;;18.10;99.90;;;;;;5013306;28;20045;-59
2021/05/13 08:15:08;;;;;;;19.58;18.38;;;18.00;99.90;;;;;;5013287;28;20104;-59
2021/05/13 08:17:35;;;;;;;19.48;18.20;;;17.90;99.90;;;;;;5013215;28;20030;-59
2021/05/13 08:20:04;;;;;;;20.38;19.13;;;17.80;99.90;;;;;;5012899;28;20610;-59
2021/05/13 08:22:31;;;;;;;21.67;20.35;;;17.70;99.90;;;;;;5013384;28;20021;-59
2021/05/13 08:24:59;;;;;;;22.40;20.90;;;17.60;99.90;;;;;;5013422;28;20022;-60
2021/05/13 08:27:27;;;;;;;21.83;20.60;;;17.50;99.90;;;;;;5013369;28;20026;-60
2021/05/13 08:29:54;;;;;;;22.13;20.83;;;17.40;99.90;;;;;;5013367;28;20026;-59
2021/05/13 08:32:21;;;;;;;22.55;21.08;;;17.40;99.90;;;;;;5013371;28;20025;-60
2021/05/13 08:34:48;;;;;;;18.10;17.08;;;17.50;99.90;;;;;;5013598;28;20025;-60
2021/05/13 08:37:16;;;;;;;16.35;15.35;;;17.80;99.90;;;;;;5013480;28;20025;-58
2021/05/13 08:39:43;;;;;;;13.52;12.48;;;17.80;99.90;;;;;;5013452;28;20033;-60
2021/05/13 08:42:13;;;;;;;10.05;9.40;;;17.90;99.90;;;;;;5013293;28;20018;-60
2021/05/13 08:44:44;;;;;;;9.57;8.77;;;18.00;99.90;;;;;;5013263;28;20497;-60
2021/05/13 08:47:12;;;;;;;7.65;7.05;;;18.00;99.90;;;;;;5013141;28;20134;-60
2021/05/13 08:49:42;;;;;;;7.57;6.97;;;18.00;99.90;;;;;;5019599;28;20505;-60
2021/05/13 08:52:16;;;;;;;6.15;5.63;;;18.00;99.90;;;;;;5018564;28;20060;-60
2021/05/13 08:54:53;;;;;;;5.90;5.40;;;18.10;99.90;;;;;;5019632;28;20030;-60
2021/05/13 08:57:22;;;;;;;6.03;5.40;;;18.30;99.90;;;;;;5019755;28;20022;-60
2021/05/13 08:59:50;;;;;;;5.10;4.80;;;18.10;99.90;;;;;;5018276;28;20034;-60
2021/05/13 09:02:18;;;;;;;6.70;5.60;;;18.00;99.90;;;;;;5019548;28;20104;-60
2021/05/13 09:04:49;;;;;;;5.53;5.15;;;18.20;99.90;;;;;;5019735;28;20025;-60
2021/05/13 09:07:28;;;;;;;5.10;4.70;;;18.10;99.90;;;;;;5019503;28;20041;-59
2021/05/13 09:10:09;;;;;;;5.53;5.13;;;18.10;99.90;;;;;;5019432;28;20028;-60
2021/05/13 09:12:37;;;;;;;;;;;18.20;99.90;;;;;;5019770;28;20099;-59
2021/05/13 09:15:22;;;;;;;5.50;5.10;;;17.80;99.90;;;;;;5019282;28;19948;-60
2021/05/13 09:17:59;;;;;;;5.53;5.13;;;17.60;99.90;;;;;;5019256;28;20449;-60
2021/05/13 09:20:31;;;;;;;6.47;5.93;;;17.40;99.90;;;;;;5019298;28;20069;-60
2021/05/13 09:23:26;;;;;;;6.90;6.18;;;17.40;99.90;;;;;;5019337;28;20481;-60
2021/05/13 09:26:13;;;;;;;5.75;5.25;;;17.30;99.90;;;;;;5002093;28;20034;-60
2021/05/13 09:28:41;;;;;;;5.20;4.80;;;17.40;99.90;;;;;;5019216;28;20042;-59
2021/05/13 09:31:29;;;;;;;5.53;5.13;;;17.50;99.90;;;;;;5019213;28;20053;-59
2021/05/13 09:34:03;;;;;;;5.80;5.50;;;17.40;99.90;;;;;;5019166;28;20022;-60
2021/05/13 09:36:31;;;;;;;5.32;4.93;;;17.60;99.90;;;;;;5019258;28;20018;-60
2021/05/13 09:38:58;;;;;;;5.22;4.85;;;17.60;99.90;;;;;;5019257;28;20477;-60
2021/05/13 09:41:35;;;;;;;5.93;5.32;;;17.60;99.90;;;;;;5019376;28;20018;-60
2021/05/13 09:44:23;;;;;;;4.97;4.60;;;17.70;99.90;;;;;;5019137;28;20026;-60
2021/05/13 09:46:50;;;;;;;5.30;4.97;;;17.70;99.90;;;;;;5018981;28;20093;-60
2021/05/13 09:49:17;;;;;;;4.85;4.50;;;17.80;99.90;;;;;;5019053;28;20018;-60
2021/05/13 09:51:44;;;;;;;5.25;4.75;;;17.80;99.90;;;;;;5018951;28;20018;-59
2021/05/13 09:54:17;;;;;;;5.10;4.60;;;17.70;99.90;;;;;;5018916;28;20026;-59
2021/05/13 09:56:49;;;;;;;5.18;4.88;;;17.80;99.90;;;;;;5018785;28;20109;-59
2021/05/13 09:59:36;;;;;;;5.40;5.00;;;17.70;99.90;;;;;;5016606;28;20029;-58
2021/05/13 10:02:10;;;;;;;5.35;4.50;;;17.70;99.90;;;;;;5015815;28;20036;-60
2021/05/13 10:04:37;;;;;;;4.97;4.22;;;17.70;99.90;;;;;;5014425;28;20347;-59
2021/05/13 10:07:08;;;;;;;5.72;5.15;;;17.70;99.50;;;;;;5015651;28;20026;-59
2021/05/13 10:09:35;;;;;;;5.32;4.93;;;17.80;99.10;;;;;;5015760;28;20434;-59
2021/05/13 10:12:02;;;;;;;5.90;5.10;;;17.80;99.40;;;;;;5015628;28;20483;-60
2021/05/13 10:14:30;;;;;;;5.10;4.70;;;17.70;99.60;;;;;;5015468;28;20018;-60
2021/05/13 10:17:03;;;;;;;4.78;4.35;;;17.50;99.40;;;;;;5014173;28;20030;-60
2021/05/13 10:19:44;;;;;;;5.00;4.60;;;17.60;99.30;;;;;;5015374;28;20502;-60
2021/05/13 10:22:15;;;;;;;5.70;5.10;;;17.60;99.30;;;;;;5014770;28;20025;-60
2021/05/13 10:24:46;;;;;;;6.07;5.68;;;17.60;99.30;;;;;;5015959;28;20332;-59
2021/05/13 10:27:18;;;;;;;5.45;5.03;;;17.50;99.20;;;;;;5015356;28;20046;-59
2021/05/13 10:29:46;;;;;;;5.13;4.80;;;17.50;99.10;;;;;;5015239;28;20026;-60
2021/05/13 10:32:21;;;;;;;4.53;4.13;;;17.50;99.20;;;;;;5015136;28;20018;-60
2021/05/13 10:34:53;;;;;;;4.68;4.30;;;17.40;99.20;;;;;;5015192;28;20033;-59
2021/05/13 10:37:35;;;;;;;4.05;3.80;;;17.40;99.40;;;;;;5015205;28;20029;-60
2021/05/13 10:42:43;;;;;;;4.30;4.00;;;17.40;99.20;;;;;;5015037;28;20022;-59
2021/05/13 10:45:32;;;;;;;4.75;4.35;;;17.40;99.50;;;;;;5014992;28;20471;-59
2021/05/13 10:48:20;;;;;;;4.85;4.45;;;17.40;99.40;;;;;;5014925;28;20022;-61
2021/05/13 10:51:03;;;;;;;4.90;4.53;;;17.30;99.70;;;;;;5014700;28;20549;-60
2021/05/13 10:53:37;;;;;;;4.93;4.30;;;17.30;99.80;;;;;;5014707;28;20030;-60
2021/05/13 10:56:20;;;;;;;5.18;4.72;;;17.20;99.90;;;;;;5014748;28;20041;-59
2021/05/13 10:59:00;;;;;;;5.00;4.60;;;17.20;99.90;;;;;;5014944;28;20084;-59
2021/05/13 11:01:43;;;;;;;5.05;4.65;;;17.10;99.90;;;;;;5013156;28;20375;-59
2021/05/13 11:04:22;;;;;;;4.70;4.40;;;17.10;99.90;;;;;;5014587;28;20022;-59
2021/05/13 11:06:59;;;;;;;5.10;4.72;;;17.10;99.90;;;;;;5014502;28;20037;-59
2021/05/13 11:09:43;;;;;;;5.45;4.60;;;17.00;99.90;;;;;;5014236;28;20490;-59
2021/05/13 11:12:17;;;;;;;4.30;4.00;;;16.80;99.90;;;;;;5013133;28;20026;-60
2021/05/13 11:15:12;;;;;;;4.40;4.00;;;16.70;99.90;;;;;;5014309;28;20025;-60
2021/05/13 11:17:44;;;;;;;4.18;3.92;;;16.90;99.90;;;;;;5014377;28;20105;-59
2021/05/13 11:20:20;;;;;;;4.95;4.55;;;16.90;99.90;;;;;;5014017;28;20502;-61
2021/05/13 11:23:10;;;;;;;4.57;4.28;;;16.90;99.90;;;;;;5014398;28;20475;-59
2021/05/13 11:25:37;;;;;;;5.72;4.43;;;16.90;99.90;;;;;;5014149;28;20422;-59
2021/05/13 11:28:27;;;;;;;4.45;4.05;;;16.90;99.90;;;;;;5013950;28;20045;-60
2021/05/13 11:31:13;;;;;;;5.07;4.70;;;17.00;99.90;;;;;;5014012;28;20100;-60
2021/05/13 11:33:43;;;;;;;4.35;4.07;;;16.90;99.90;;;;;;5014244;28;20053;-59
2021/05/13 11:36:13;;;;;;;4.78;4.38;;;16.90;99.90;;;;;;5013766;28;20078;-59
2021/05/13 11:38:41;;;;;;;4.50;4.10;;;16.90;99.90;;;;;;5013731;28;20092;-59
2021/05/13 11:41:09;;;;;;;4.70;4.40;;;16.80;99.90;;;;;;5014026;28;20497;-58
2021/05/13 11:43:41;;;;;;;4.57;4.28;;;16.80;99.90;;;;;;5012465;28;20037;-57
2021/05/13 11:46:10;;;;;;;4.70;4.40;;;16.80;99.90;;;;;;5013523;28;20030;-58
2021/05/13 11:48:40;;;;;;;5.10;4.70;;;16.80;99.90;;;;;;5013697;28;20104;-56
2021/05/13 11:51:14;;;;;;;5.20;4.80;;;16.80;99.90;;;;;;5013854;28;20076;-57
2021/05/13 11:53:43;;;;;;;4.50;4.20;;;16.60;99.90;;;;;;5013680;28;20112;-59
2021/05/13 11:56:15;;;;;;;5.30;4.95;;;16.60;99.90;;;;;;5013543;28;20030;-59
2021/05/13 11:58:47;;;;;;;4.60;4.30;;;16.50;99.90;;;;;;5013613;28;20034;-59
2021/05/13 12:01:24;;;;;;;5.30;4.90;;;16.40;99.90;;;;;;5013508;28;20022;-60
2021/05/13 12:03:58;;;;;;;4.75;4.45;;;16.30;99.90;;;;;;5013568;28;20032;-59
2021/05/13 12:06:27;;;;;;;5.00;4.60;;;16.20;99.90;;;;;;5013363;28;20083;-60
2021/05/13 12:08:55;;;;;;;4.93;4.45;;;16.00;99.90;;;;;;5013405;28;20022;-60
2021/05/13 12:11:27;;;;;;;5.25;4.72;;;16.00;99.90;;;;;;5013387;28;20072;-59
2021/05/13 12:13:59;;;;;;;4.95;4.55;;;16.10;99.90;;;;;;5013409;28;20029;-59
2021/05/13 12:16:28;;;;;;;5.05;4.75;;;16.10;99.90;;;;;;5013570;28;20018;-60
2021/05/13 12:19:04;;;;;;;5.00;4.70;;;16.00;99.90;;;;;;5013441;28;20030;-59
2021/05/13 12:21:34;;;;;;;5.07;4.57;;;15.90;99.90;;;;;;5012132;28;20038;-58
2021/05/13 12:24:06;;;;;;;5.15;4.68;;;16.00;99.90;;;;;;5012911;28;20030;-59
2021/05/13 12:26:44;;;;;;;4.65;4.45;;;16.00;99.90;;;;;;5013154;28;20030;-58
2021/05/13 12:29:14;;;;;;;4.63;4.32;;;16.00;99.90;;;;;;5013122;28;20095;-60
2021/05/13 12:31:46;;;;;;;4.70;4.35;;;15.90;99.90;;;;;;5013163;28;20478;-57
2021/05/13 12:34:31;;;;;;;4.60;4.30;;;15.90;99.90;;;;;;5013145;28;20501;-59
2021/05/13 12:36:59;;;;;;;4.70;4.50;;;16.00;99.90;;;;;;5013286;28;20032;-60
2021/05/13 12:39:38;;;;;;;4.78;4.53;;;16.10;99.90;;;;;;5013225;28;20429;-60
2021/05/13 12:42:26;;;;;;;4.50;4.30;;;16.00;99.90;;;;;;5013345;28;20391;-59
2021/05/13 12:45:21;;;;;;;5.00;4.70;;;15.80;99.90;;;;;;5013166;28;20108;-58
2021/05/13 12:48:03;;;;;;;5.20;4.90;;;15.80;99.90;;;;;;5011822;28;20045;-57
2021/05/13 12:50:32;;;;;;;4.80;4.40;;;15.80;99.90;;;;;;5013050;28;20034;-57
2021/05/13 12:53:14;;;;;;;4.82;4.53;;;15.90;99.90;;;;;;5011662;28;20026;-57
2021/05/13 12:55:46;;;;;;;4.63;4.32;;;15.80;99.90;;;;;;5012953;28;20030;-59
2021/05/13 12:58:25;;;;;;;4.07;3.88;;;15.80;99.90;;;;;;5013074;28;20022;-58
2021/05/13 13:01:04;;;;;;;4.60;4.30;;;15.80;99.90;;;;;;5013294;28;20498;-58
2021/05/13 13:03:41;;;;;;;4.25;4.03;;;15.90;99.90;;;;;;5013000;28;20022;-58
2021/05/13 13:06:16;;;;;;;4.05;3.85;;;16.00;99.90;;;;;;5012826;28;20030;-59
2021/05/13 13:08:46;;;;;;;4.18;3.85;;;15.90;99.90;;;;;;5012924;28;20018;-58
2021/05/13 13:11:29;;;;;;;4.20;4.00;;;16.00;99.90;;;;;;5013099;28;20026;-58